Time;durP1;ratioP1;P1;durP2;ratioP2;P2;SDS_P1;SDS_P2;PMS_P1;PMS_P2;Temp;Humidity;BMP_temperature;BMP_pressure;BME280_temperature;BME280_humidity;BME280_pressure;Samples;Min_cycle;Max_cycle;Signal;HPM_P1;HPM_P2
2023/04/05 00:00:28;;;;;;;;;;;;;;;;;;5051114;28;43027;-78
2023/04/05 00:02:53;;;;;;;;;;;;;;;;;;5057258;28;43871;-78
2023/04/05 00:05:28;;;;;;;;;;;;;;;;;;5045339;28;42965;-79
2023/04/05 00:07:54;;;;;;;;;;;;;;;;;;5044398;28;43111;-78
2023/04/05 00:10:20;;;;;;;;;;;;;;;;;;5052598;28;43216;-79
2023/04/05 00:12:46;;;;;;;;;;;;;;;;;;5061524;28;43012;-78
2023/04/05 00:15:12;;;;;;;;;;;;;;;;;;5052148;28;43590;-78
2023/04/05 00:17:38;;;;;;;;;;;;;;;;;;5043076;28;43293;-78
2023/04/05 00:20:06;;;;;;;;;;;;;;;;;;5043664;28;44081;-78
2023/04/05 00:22:34;;;;;;;;;;;;;;;;;;5059189;28;43299;-78
2023/04/05 00:25:00;;;;;;;;;;;;;;;;;;5057490;28;43517;-79
2023/04/05 00:27:26;;;;;;;;;;;;;;;;;;5046682;28;43106;-78
2023/04/05 00:29:52;;;;;;;;;;;;;;;;;;5044541;28;42754;-78
2023/04/05 00:32:18;;;;;;;;;;;;;;;;;;5051581;28;43146;-78
2023/04/05 00:34:44;;;;;;;;;;;;;;;;;;5054561;28;42903;-79
2023/04/05 00:37:10;;;;;;;;;;;;;;;;;;5043449;28;43017;-78
2023/04/05 00:39:36;;;;;;;;;;;;;;;;;;5043883;28;43006;-78
2023/04/05 00:42:03;;;;;;;;;;;;;;;;;;5044180;28;42864;-78
2023/04/05 00:44:33;;;;;;;;;;;;;;;;;;5044989;28;42951;-78
2023/04/05 00:46:59;;;;;;;;;;;;;;;;;;5053233;28;42961;-78
2023/04/05 00:49:25;;;;;;;;;;;;;;;;;;5043064;28;43920;-78
2023/04/05 00:51:51;;;;;;;;;;;;;;;;;;5043976;28;42877;-78
2023/04/05 00:54:17;;;;;;;;;;;;;;;;;;5048466;28;42824;-79
2023/04/05 00:56:43;;;;;;;;;;;;;;;;;;5044351;28;43028;-77
2023/04/05 00:59:09;;;;;;;;;;;;;;;;;;5051136;28;42950;-78
2023/04/05 01:01:36;;;;;;;;;;;;;;;;;;5049315;28;43011;-78
2023/04/05 01:04:02;;;;;;;;;;;;;;;;;;5051497;28;42924;-78
2023/04/05 01:06:28;;;;;;;;;;;;;;;;;;5040059;28;43091;-78
2023/04/05 01:08:55;;;;;;;;;;;;;;;;;;5051004;28;43931;-76
2023/04/05 01:11:21;;;;;;;;;;;;;;;;;;5051937;28;42987;-79
2023/04/05 01:13:47;;;;;;;;;;;;;;;;;;5046840;28;42942;-78
2023/04/05 01:16:12;;;;;;;;;;;;;;;;;;5060064;28;43199;-78
2023/04/05 01:18:39;;;;;;;;;;;;;;;;;;5051062;28;43039;-78
2023/04/05 01:21:06;;;;;;;;;;;;;;;;;;5048688;28;43042;-78
2023/04/05 01:23:32;;;;;;;;;;;;;;;;;;5048378;28;43031;-77
2023/04/05 01:25:58;;;;;;;;;;;;;;;;;;5058638;28;43070;-78
2023/04/05 01:28:24;;;;;;;;;;;;;;;;;;5049222;28;44482;-77
2023/04/05 01:30:50;;;;;;;;;;;;;;;;;;5048915;28;43014;-77
2023/04/05 01:33:16;;;;;;;;;;;;;;;;;;5054513;28;43456;-78
2023/04/05 01:35:43;;;;;;;;;;;;;;;;;;5045557;28;43113;-78
2023/04/05 01:38:09;;;;;;;;;;;;;;;;;;5025352;28;43168;-77
2023/04/05 01:40:37;;;;;;;;;;;;;;;;;;5048380;28;43049;-78
2023/04/05 01:43:02;;;;;;;;;;;;;;;;;;5057438;28;42973;-76
2023/04/05 01:45:28;;;;;;;;;;;;;;;;;;5062051;28;43316;-78
2023/04/05 01:47:54;;;;;;;;;;;;;;;;;;5041916;28;43723;-77
2023/04/05 01:50:20;;;;;;;;;;;;;;;;;;5043392;28;42849;-78
2023/04/05 01:52:46;;;;;;;;;;;;;;;;;;5050764;28;43843;-79
2023/04/05 01:55:12;;;;;;;;;;;;;;;;;;5050624;28;43064;-78
2023/04/05 01:57:38;;;;;;;;;;;;;;;;;;5023210;28;44521;-77
2023/04/05 02:00:04;;;;;;;;;;;;;;;;;;5055020;28;42900;-78
2023/04/05 02:02:30;;;;;;;;;;;;;;;;;;5052058;28;42988;-78
2023/04/05 02:04:55;;;;;;;;;;;;;;;;;;5039189;28;42932;-78
2023/04/05 02:07:23;;;;;;;;;;;;;;;;;;5053483;28;42999;-78
2023/04/05 02:09:49;;;;;;;;;;;;;;;;;;5055908;28;42937;-78
2023/04/05 02:12:15;;;;;;;;;;;;;;;;;;5054053;28;43446;-77
2023/04/05 02:14:41;;;;;;;;;;;;;;;;;;5050829;28;42983;-78
2023/04/05 02:17:07;;;;;;;;;;;;;;;;;;5046056;28;43141;-78
2023/04/05 02:19:39;;;;;;;;;;;;;;;;;;5048034;28;42878;-78
2023/04/05 02:22:05;;;;;;;;;;;;;;;;;;5047549;28;44040;-78
2023/04/05 02:24:31;;;;;;;;;;;;;;;;;;5047660;28;43070;-77
2023/04/05 02:26:57;;;;;;;;;;;;;;;;;;5051274;28;43286;-77
2023/04/05 02:29:23;;;;;;;;;;;;;;;;;;5049691;28;42888;-78
2023/04/05 02:31:49;;;;;;;;;;;;;;;;;;5051936;28;43897;-78
2023/04/05 02:34:15;;;;;;;;;;;;;;;;;;5051759;28;43327;-77
2023/04/05 02:36:41;;;;;;;;;;;;;;;;;;5058265;28;44114;-78
2023/04/05 02:39:06;;;;;;;;;;;;;;;;;;5050611;28;43009;-76
2023/04/05 02:41:32;;;;;;;;;;;;;;;;;;5055196;28;42892;-76
2023/04/05 02:43:58;;;;;;;;;;;;;;;;;;5053842;28;43208;-77
2023/04/05 02:46:24;;;;;;;;;;;;;;;;;;5058528;28;44014;-84
2023/04/05 02:48:51;;;;;;;;;;;;;;;;;;5050875;28;42988;-84
2023/04/05 02:51:17;;;;;;;;;;;;;;;;;;5060764;28;43162;-86
2023/04/05 02:53:43;;;;;;;;;;;;;;;;;;5057075;28;42995;-83
2023/04/05 02:56:12;;;;;;;;;;;;;;;;;;5045499;28;45669;-83
2023/04/05 02:58:38;;;;;;;;;;;;;;;;;;5047581;28;42982;-84
2023/04/05 03:01:06;;;;;;;;;;;;;;;;;;5053350;28;42935;-84
2023/04/05 03:03:33;;;;;;;;;;;;;;;;;;5044800;28;43293;-84
2023/04/05 03:06:00;;;;;;;;;;;;;;;;;;5035634;28;43883;-84
2023/04/05 03:08:27;;;;;;;;;;;;;;;;;;5063503;28;43016;-84
2023/04/05 03:10:53;;;;;;;;;;;;;;;;;;5057461;28;43016;-78
2023/04/05 03:13:19;;;;;;;;;;;;;;;;;;5047414;28;42971;-78
2023/04/05 03:15:45;;;;;;;;;;;;;;;;;;5053259;28;42903;-78
2023/04/05 03:18:11;;;;;;;;;;;;;;;;;;5048193;28;44073;-79
2023/04/05 03:20:40;;;;;;;;;;;;;;;;;;5054032;28;43385;-76
2023/04/05 03:23:07;;;;;;;;;;;;;;;;;;5051565;28;43052;-76
2023/04/05 03:25:35;;;;;;;;;;;;;;;;;;5044735;28;42945;-78
2023/04/05 03:28:02;;;;;;;;;;;;;;;;;;5055335;28;42948;-77
2023/04/05 03:30:28;;;;;;;;;;;;;;;;;;5060393;28;42972;-78
2023/04/05 03:32:56;;;;;;;;;;;;;;;;;;5057693;28;42949;-76
2023/04/05 03:35:21;;;;;;;;;;;;;;;;;;5046031;28;43753;-77
2023/04/05 03:37:47;;;;;;;;;;;;;;;;;;5060731;28;43003;-77
2023/04/05 03:40:13;;;;;;;;;;;;;;;;;;5061327;28;43913;-77
2023/04/05 03:42:39;;;;;;;;;;;;;;;;;;5053877;28;43748;-78
2023/04/05 03:45:05;;;;;;;;;;;;;;;;;;5048370;28;42920;-77
2023/04/05 03:47:31;;;;;;;;;;;;;;;;;;5054879;28;42955;-78
2023/04/05 03:49:57;;;;;;;;;;;;;;;;;;5061488;28;42893;-78
2023/04/05 03:52:23;;;;;;;;;;;;;;;;;;5052372;28;44722;-77
2023/04/05 03:54:49;;;;;;;;;;;;;;;;;;5048532;28;42947;-77
2023/04/05 03:57:15;;;;;;;;;;;;;;;;;;5048654;28;43050;-77
2023/04/05 03:59:41;;;;;;;;;;;;;;;;;;5051317;28;42995;-76
2023/04/05 04:02:07;;;;;;;;;;;;;;;;;;5064286;28;42884;-77
2023/04/05 04:04:32;;;;;;;;;;;;;;;;;;5058704;28;43810;-76
2023/04/05 04:06:58;;;;;;;;;;;;;;;;;;5053883;28;43085;-77
2023/04/05 04:09:26;;;;;;;;;;;;;;;;;;5043354;28;44359;-78
2023/04/05 04:11:52;;;;;;;;;;;;;;;;;;5032993;28;42925;-77
2023/04/05 04:14:18;;;;;;;;;;;;;;;;;;5047347;28;43034;-78
2023/04/05 04:16:44;;;;;;;;;;;;;;;;;;5054665;28;43051;-78
2023/04/05 04:19:10;;;;;;;;;;;;;;;;;;5052882;28;43006;-78
2023/04/05 04:21:38;;;;;;;;;;;;;;;;;;5052416;28;42979;-78
2023/04/05 04:24:04;;;;;;;;;;;;;;;;;;5046171;28;44519;-78
2023/04/05 04:26:36;;;;;;;;;;;;;;;;;;5050427;28;42921;-78
2023/04/05 04:29:05;;;;;;;;;;;;;;;;;;5043141;28;43104;-76
2023/04/05 04:31:32;;;;;;;;;;;;;;;;;;5050204;28;42905;-78
2023/04/05 04:34:01;;;;;;;;;;;;;;;;;;5055916;28;43572;-78
2023/04/05 04:36:33;;;;;;;;;;;;;;;;;;5055766;28;42783;-78
2023/04/05 04:39:01;;;;;;;;;;;;;;;;;;5049515;28;43556;-77
2023/04/05 04:41:27;;;;;;;;;;;;;;;;;;5057354;28;43073;-78
2023/04/05 04:43:53;;;;;;;;;;;;;;;;;;5060342;28;43395;-78
2023/04/05 04:46:19;;;;;;;;;;;;;;;;;;5055359;28;42923;-78
2023/04/05 04:48:46;;;;;;;;;;;;;;;;;;5051442;28;42946;-78
2023/04/05 04:51:12;;;;;;;;;;;;;;;;;;5046440;28;43155;-77
2023/04/05 04:53:37;;;;;;;;;;;;;;;;;;5051537;28;43044;-77
2023/04/05 04:56:03;;;;;;;;;;;;;;;;;;5048352;28;43019;-78
2023/04/05 04:58:30;;;;;;;;;;;;;;;;;;5044088;28;45013;-78
2023/04/05 05:00:55;;;;;;;;;;;;;;;;;;5061713;28;43469;-78
2023/04/05 05:03:21;;;;;;;;;;;;;;;;;;5062413;28;43290;-78
2023/04/05 05:05:47;;;;;;;;;;;;;;;;;;5058995;28;43077;-78
2023/04/05 05:08:13;;;;;;;;;;;;;;;;;;5042693;28;43793;-78
2023/04/05 05:10:39;;;;;;;;;;;;;;;;;;5043959;28;43193;-78
2023/04/05 05:13:05;;;;;;;;;;;;;;;;;;5052768;28;43858;-78
2023/04/05 05:15:31;;;;;;;;;;;;;;;;;;5064011;28;43814;-78
2023/04/05 05:17:57;;;;;;;;;;;;;;;;;;5055111;28;43011;-78
2023/04/05 05:20:23;;;;;;;;;;;;;;;;;;5043883;28;43080;-76
2023/04/05 05:22:50;;;;;;;;;;;;;;;;;;5050396;28;43051;-76
2023/04/05 05:25:15;;;;;;;;;;;;;;;;;;5044099;28;42968;-76
2023/04/05 05:27:41;;;;;;;;;;;;;;;;;;5053830;28;43084;-76
2023/04/05 05:30:08;;;;;;;;;;;;;;;;;;5051439;28;43302;-77
2023/04/05 05:32:33;;;;;;;;;;;;;;;;;;5052221;28;43175;-78
2023/04/05 05:34:59;;;;;;;;;;;;;;;;;;5053542;28;42975;-78
2023/04/05 05:37:25;;;;;;;;;;;;;;;;;;5050583;28;43974;-81
2023/04/05 05:39:51;;;;;;;;;;;;;;;;;;5060077;28;43260;-76
2023/04/05 05:42:17;;;;;;;;;;;;;;;;;;5058033;28;43737;-80
2023/04/05 05:44:43;;;;;;;;;;;;;;;;;;5057031;28;42927;-76
2023/04/05 05:47:10;;;;;;;;;;;;;;;;;;5054407;28;44203;-81
2023/04/05 05:49:36;;;;;;;;;;;;;;;;;;5049483;28;43118;-82
2023/04/05 05:52:02;;;;;;;;;;;;;;;;;;5047366;28;43935;-83
2023/04/05 05:54:28;;;;;;;;;;;;;;;;;;5038183;28;43184;-84
2023/04/05 05:56:55;;;;;;;;;;;;;;;;;;5056988;28;43072;-79
2023/04/05 05:59:21;;;;;;;;;;;;;;;;;;5060341;28;42896;-80
2023/04/05 06:01:47;;;;;;;;;;;;;;;;;;5066218;28;42928;-81
2023/04/05 06:04:13;;;;;;;;;;;;;;;;;;5035756;28;43294;-80
2023/04/05 06:06:41;;;;;;;;;;;;;;;;;;5046548;28;42975;-81
2023/04/05 06:09:07;;;;;;;;;;;;;;;;;;5052269;28;42958;-81
2023/04/05 06:11:33;;;;;;;;;;;;;;;;;;5062693;28;43530;-82
2023/04/05 06:13:59;;;;;;;;;;;;;;;;;;5057526;28;42848;-81
2023/04/05 06:16:26;;;;;;;;;;;;;;;;;;5060198;28;43497;-83
2023/04/05 06:18:54;;;;;;;;;;;;;;;;;;5054477;28;43296;-85
2023/04/05 06:21:20;;;;;;;;;;;;;;;;;;5050227;28;44579;-89
2023/04/05 06:23:46;;;;;;;;;;;;;;;;;;5053212;28;43083;-87
2023/04/05 06:26:12;;;;;;;;;;;;;;;;;;5046577;28;43269;-87
2023/04/05 06:28:37;;;;;;;;;;;;;;;;;;5034229;28;42976;-88
2023/04/05 06:31:03;;;;;;;;;;;;;;;;;;5048193;28;45249;-86
2023/04/05 06:33:29;;;;;;;;;;;;;;;;;;5052117;28;43035;-87
2023/04/05 06:35:55;;;;;;;;;;;;;;;;;;5045937;28;43586;-87
2023/04/05 06:38:21;;;;;;;;;;;;;;;;;;5052530;28;43133;-86
2023/04/05 06:40:54;;;;;;;;;;;;;;;;;;5045821;28;43941;-88
2023/04/05 06:43:20;;;;;;;;;;;;;;;;;;5046456;28;43023;-87
2023/04/05 06:45:46;;;;;;;;;;;;;;;;;;5047677;28;44009;-89
2023/04/05 06:48:12;;;;;;;;;;;;;;;;;;5056642;28;43028;-87
2023/04/05 06:50:39;;;;;;;;;;;;;;;;;;5047949;28;43042;-82
2023/04/05 06:53:05;;;;;;;;;;;;;;;;;;5058860;28;43050;-81
2023/04/05 06:55:31;;;;;;;;;;;;;;;;;;5039360;28;44413;-84
2023/04/05 06:57:57;;;;;;;;;;;;;;;;;;5050140;28;42817;-85
2023/04/05 07:00:25;;;;;;;;;;;;;;;;;;5049750;28;43823;-86
2023/04/05 07:02:51;;;;;;;;;;;;;;;;;;5039368;28;43056;-86
2023/04/05 07:05:17;;;;;;;;;;;;;;;;;;5041755;28;44755;-86
2023/04/05 07:07:44;;;;;;;;;;;;;;;;;;5045692;28;43006;-86
2023/04/05 07:10:10;;;;;;;;;;;;;;;;;;5049309;28;43490;-86
2023/04/05 07:12:36;;;;;;;;;;;;;;;;;;5059526;28;42999;-83
2023/04/05 07:15:02;;;;;;;;;;;;;;;;;;5053663;28;43982;-84
2023/04/05 07:17:27;;;;;;;;;;;;;;;;;;5060253;28;43003;-81
2023/04/05 07:19:53;;;;;;;;;;;;;;;;;;5051946;28;42991;-80
2023/04/05 07:22:19;;;;;;;;;;;;;;;;;;5061859;28;42942;-79
2023/04/05 07:24:45;;;;;;;;;;;;;;;;;;5043764;28;43500;-80
2023/04/05 07:27:11;;;;;;;;;;;;;;;;;;5042667;28;42928;-81
2023/04/05 07:29:39;;;;;;;;;;;;;;;;;;5042977;28;43716;-80
2023/04/05 07:32:05;;;;;;;;;;;;;;;;;;5044783;28;42988;-80
2023/04/05 07:34:31;;;;;;;;;;;;;;;;;;5052798;28;43042;-79
2023/04/05 07:36:57;;;;;;;;;;;;;;;;;;5054114;28;42974;-80
2023/04/05 07:39:23;;;;;;;;;;;;;;;;;;5053497;28;43452;-80
2023/04/05 07:41:50;;;;;;;;;;;;;;;;;;5061967;28;42912;-82
2023/04/05 07:44:16;;;;;;;;;;;;;;;;;;5055030;28;43232;-81
2023/04/05 07:46:43;;;;;;;;;;;;;;;;;;5048467;28;42965;-80
2023/04/05 07:49:09;;;;;;;;;;;;;;;;;;5044310;28;42930;-81
2023/04/05 07:51:37;;;;;;;;;;;;;;;;;;5045957;28;43140;-80
2023/04/05 07:54:04;;;;;;;;;;;;;;;;;;5033146;28;44487;-80
2023/04/05 07:56:30;;;;;;;;;;;;;;;;;;5044324;28;43059;-80
2023/04/05 07:58:56;;;;;;;;;;;;;;;;;;5047477;28;43542;-80
2023/04/05 08:01:26;;;;;;;;;;;;;;;;;;5044820;28;43031;-80
2023/04/05 08:03:52;;;;;;;;;;;;;;;;;;5044112;28;44518;-80
2023/04/05 08:06:18;;;;;;;;;;;;;;;;;;5047693;28;42872;-81
2023/04/05 08:08:44;;;;;;;;;;;;;;;;;;5052675;28;43891;-80
2023/04/05 08:11:10;;;;;;;;;;;;;;;;;;5056794;28;42929;-80
2023/04/05 08:13:38;;;;;;;;;;;;;;;;;;5063886;28;43656;-81
2023/04/05 08:16:04;;;;;;;;;;;;;;;;;;5032888;28;43192;-80
2023/04/05 08:18:30;;;;;;;;;;;;;;;;;;5061388;28;42965;-80
2023/04/05 08:20:56;;;;;;;;;;;;;;;;;;5060830;28;42992;-81
2023/04/05 08:23:22;;;;;;;;;;;;;;;;;;5044047;28;43682;-81
2023/04/05 08:25:48;;;;;;;;;;;;;;;;;;5045260;28;42890;-81
2023/04/05 08:28:14;;;;;;;;;;;;;;;;;;5056692;28;42873;-81
2023/04/05 08:30:40;;;;;;;;;;;;;;;;;;5056200;28;42734;-81
2023/04/05 08:33:06;;;;;;;;;;;;;;;;;;5046093;28;43532;-81
2023/04/05 08:35:32;;;;;;;;;;;;;;;;;;5059224;28;43378;-81
2023/04/05 08:38:00;;;;;;;;;;;;;;;;;;5061274;28;43150;-83
2023/04/05 08:40:26;;;;;;;;;;;;;;;;;;5053818;28;43258;-82
2023/04/05 08:42:52;;;;;;;;;;;;;;;;;;5057576;28;43502;-80
2023/04/05 08:45:18;;;;;;;;;;;;;;;;;;5061248;28;43071;-81
2023/04/05 08:47:44;;;;;;;;;;;;;;;;;;5049286;28;43044;-81
2023/04/05 08:50:12;;;;;;;;;;;;;;;;;;5055435;28;42964;-82
2023/04/05 08:52:38;;;;;;;;;;;;;;;;;;5054574;28;43603;-81
2023/04/05 08:55:04;;;;;;;;;;;;;;;;;;5057804;28;43042;-82
2023/04/05 08:57:30;;;;;;;;;;;;;;;;;;5050148;28;43289;-82
2023/04/05 08:59:55;;;;;;;;;;;;;;;;;;5061811;28;43066;-82
2023/04/05 09:02:21;;;;;;;;;;;;;;;;;;5051703;28;43026;-82
2023/04/05 09:04:47;;;;;;;;;;;;;;;;;;5045150;28;42895;-82
2023/04/05 09:07:13;;;;;;;;;;;;;;;;;;5061737;28;43666;-81
2023/04/05 09:09:39;;;;;;;;;;;;;;;;;;5055680;28;42970;-82
2023/04/05 09:12:05;;;;;;;;;;;;;;;;;;5054468;28;42917;-81
2023/04/05 09:14:31;;;;;;;;;;;;;;;;;;5056247;28;43049;-82
2023/04/05 09:16:57;;;;;;;;;;;;;;;;;;5050847;28;42925;-81
2023/04/05 09:19:23;;;;;;;;;;;;;;;;;;5051296;28;42965;-81
2023/04/05 09:21:49;;;;;;;;;;;;;;;;;;5047804;28;43181;-83
2023/04/05 09:24:15;;;;;;;;;;;;;;;;;;5042952;28;42924;-81
2023/04/05 09:26:41;;;;;;;;;;;;;;;;;;5051813;28;43957;-82
2023/04/05 09:29:06;;;;;;;;;;;;;;;;;;5050105;28;43071;-81
2023/04/05 09:31:32;;;;;;;;;;;;;;;;;;5058967;28;43033;-82
2023/04/05 09:33:59;;;;;;;;;;;;;;;;;;5044095;28;43097;-83
2023/04/05 09:36:27;;;;;;;;;;;;;;;;;;5050055;28;44340;-82
2023/04/05 09:38:52;;;;;;;;;;;;;;;;;;5058150;28;42841;-81
2023/04/05 09:41:18;;;;;;;;;;;;;;;;;;5045832;28;42837;-82
2023/04/05 09:43:44;;;;;;;;;;;;;;;;;;5053378;28;42938;-82
2023/04/05 09:46:10;;;;;;;;;;;;;;;;;;5043351;28;43315;-82
2023/04/05 09:48:36;;;;;;;;;;;;;;;;;;5045622;28;43183;-82
2023/04/05 09:51:02;;;;;;;;;;;;;;;;;;5051366;28;43521;-82
2023/04/05 09:53:28;;;;;;;;;;;;;;;;;;5031792;28;43295;-83
2023/04/05 09:55:54;;;;;;;;;;;;;;;;;;5046311;28;43860;-84
2023/04/05 09:58:20;;;;;;;;;;;;;;;;;;5042494;28;42766;-82
2023/04/05 10:00:51;;;;;;;;;;;;;;;;;;5048290;28;43502;-83
2023/04/05 10:03:17;;;;;;;;;;;;;;;;;;5039505;28;43114;-82
2023/04/05 10:05:43;;;;;;;;;;;;;;;;;;5043407;28;43007;-84
2023/04/05 10:08:09;;;;;;;;;;;;;;;;;;5052971;28;43079;-84
2023/04/05 10:10:35;;;;;;;;;;;;;;;;;;5035574;28;43661;-88
2023/04/05 10:13:01;;;;;;;;;;;;;;;;;;5045787;28;43073;-87
2023/04/05 10:15:27;;;;;;;;;;;;;;;;;;5054023;28;43147;-84
2023/04/05 10:17:55;;;;;;;;;;;;;;;;;;5048831;28;44614;-84
2023/04/05 10:20:21;;;;;;;;;;;;;;;;;;5045016;28;43152;-84
2023/04/05 10:22:47;;;;;;;;;;;;;;;;;;5051253;28;42900;-84
2023/04/05 10:25:12;;;;;;;;;;;;;;;;;;5043938;28;45703;-84
2023/04/05 10:27:38;;;;;;;;;;;;;;;;;;5063081;28;42895;-85
2023/04/05 10:30:05;;;;;;;;;;;;;;;;;;5042598;28;45093;-84
2023/04/05 10:32:31;;;;;;;;;;;;;;;;;;5063098;28;42995;-84
2023/04/05 10:34:57;;;;;;;;;;;;;;;;;;5049708;28;42901;-84
2023/04/05 10:37:23;;;;;;;;;;;;;;;;;;5063600;28;43132;-84
2023/04/05 10:39:49;;;;;;;;;;;;;;;;;;5063791;28;43003;-84
2023/04/05 10:42:14;;;;;;;;;;;;;;;;;;5045319;28;42920;-84
2023/04/05 10:44:40;;;;;;;;;;;;;;;;;;5045589;28;43551;-84
2023/04/05 10:47:06;;;;;;;;;;;;;;;;;;5051626;28;43036;-84
2023/04/05 10:49:35;;;;;;;;;;;;;;;;;;5066332;28;42972;-84
2023/04/05 10:52:01;;;;;;;;;;;;;;;;;;5057926;28;43082;-84
2023/04/05 10:54:27;;;;;;;;;;;;;;;;;;5044637;28;43419;-83
2023/04/05 10:56:53;;;;;;;;;;;;;;;;;;5064088;28;42860;-84
2023/04/05 10:59:19;;;;;;;;;;;;;;;;;;5064965;28;42980;-84
2023/04/05 11:01:45;;;;;;;;;;;;;;;;;;5046230;28;42973;-85
2023/04/05 11:04:11;;;;;;;;;;;;;;;;;;5028334;28;43433;-84
2023/04/05 11:06:37;;;;;;;;;;;;;;;;;;5064585;28;43113;-85
2023/04/05 11:09:03;;;;;;;;;;;;;;;;;;5052620;28;43486;-84
2023/04/05 11:11:29;;;;;;;;;;;;;;;;;;5063634;28;42888;-84
2023/04/05 11:13:55;;;;;;;;;;;;;;;;;;5052377;28;43816;-83
2023/04/05 11:16:21;;;;;;;;;;;;;;;;;;5064789;28;43002;-84
2023/04/05 11:18:47;;;;;;;;;;;;;;;;;;5051728;28;42905;-84
2023/04/05 11:21:12;;;;;;;;;;;;;;;;;;5045163;28;42972;-84
2023/04/05 11:23:38;;;;;;;;;;;;;;;;;;5051703;28;43007;-84
2023/04/05 11:26:04;;;;;;;;;;;;;;;;;;5057316;28;42993;-84
2023/04/05 11:28:30;;;;;;;;;;;;;;;;;;5058082;28;43728;-84
2023/04/05 11:30:57;;;;;;;;;;;;;;;;;;5045768;28;43014;-84
2023/04/05 11:33:23;;;;;;;;;;;;;;;;;;5041441;28;42970;-83
2023/04/05 11:35:49;;;;;;;;;;;;;;;;;;5045902;28;43048;-83
2023/04/05 11:38:16;;;;;;;;;;;;;;;;;;5045530;28;42876;-85
2023/04/05 11:40:42;;;;;;;;;;;;;;;;;;5045545;28;42806;-84
2023/04/05 11:43:08;;;;;;;;;;;;;;;;;;5045920;28;43444;-85
2023/04/05 11:45:35;;;;;;;;;;;;;;;;;;5027145;28;43247;-84
2023/04/05 11:48:00;;;;;;;;;;;;;;;;;;5045487;28;43564;-84
2023/04/05 11:50:26;;;;;;;;;;;;;;;;;;5047016;28;43211;-84
2023/04/05 11:52:52;;;;;;;;;;;;;;;;;;5052883;28;43778;-84
2023/04/05 11:55:18;;;;;;;;;;;;;;;;;;5065316;28;42896;-84
2023/04/05 11:57:44;;;;;;;;;;;;;;;;;;5049264;28;43675;-84
2023/04/05 12:00:11;;;;;;;;;;;;;;;;;;5044812;28;42859;-83
2023/04/05 12:02:37;;;;;;;;;;;;;;;;;;5046424;28;43485;-83
2023/04/05 12:05:02;;;;;;;;;;;;;;;;;;5045291;28;42967;-84
2023/04/05 12:07:31;;;;;;;;;;;;;;;;;;5045532;28;44048;-84
2023/04/05 12:09:57;;;;;;;;;;;;;;;;;;5044853;28;42944;-84
2023/04/05 12:12:23;;;;;;;;;;;;;;;;;;5046410;28;43467;-84
2023/04/05 12:14:49;;;;;;;;;;;;;;;;;;5045260;28;43068;-85
2023/04/05 12:17:15;;;;;;;;;;;;;;;;;;5044348;28;42853;-85
2023/04/05 12:19:40;;;;;;;;;;;;;;;;;;5046367;28;42990;-84
2023/04/05 12:22:06;;;;;;;;;;;;;;;;;;5029209;28;44783;-84
2023/04/05 12:24:32;;;;;;;;;;;;;;;;;;5028696;28;43371;-84
2023/04/05 12:26:58;;;;;;;;;;;;;;;;;;5046548;28;43536;-84
2023/04/05 12:29:24;;;;;;;;;;;;;;;;;;5044146;28;43132;-85
2023/04/05 12:31:50;;;;;;;;;;;;;;;;;;5044241;28;43078;-85
2023/04/05 12:34:18;;;;;;;;;;;;;;;;;;5044800;28;60400;-84
2023/04/05 12:36:44;;;;;;;;;;;;;;;;;;5044926;28;42936;-84
2023/04/05 12:39:10;;;;;;;;;;;;;;;;;;5045108;28;42988;-84
2023/04/05 12:41:36;;;;;;;;;;;;;;;;;;5045163;28;43911;-85
2023/04/05 12:44:04;;;;;;;;;;;;;;;;;;5052125;28;42972;-84
2023/04/05 12:46:30;;;;;;;;;;;;;;;;;;5063188;28;43625;-84
2023/04/05 12:48:56;;;;;;;;;;;;;;;;;;5053765;28;42938;-85
2023/04/05 12:51:21;;;;;;;;;;;;;;;;;;5059562;28;43023;-83
2023/04/05 12:53:48;;;;;;;;;;;;;;;;;;5056126;28;43119;-87
2023/04/05 12:56:14;;;;;;;;;;;;;;;;;;5059479;28;42877;-83
2023/04/05 12:58:40;;;;;;;;;;;;;;;;;;5057412;28;42857;-86
2023/04/05 13:01:05;;;;;;;;;;;;;;;;;;5046580;28;43739;-87
2023/04/05 13:03:31;;;;;;;;;;;;;;;;;;5059314;28;42935;-80
2023/04/05 13:05:57;;;;;;;;;;;;;;;;;;5060479;28;43765;-79
2023/04/05 13:08:25;;;;;;;;;;;;;;;;;;5057728;28;42998;-79
2023/04/05 13:10:51;;;;;;;;;;;;;;;;;;5056238;28;43456;-78
2023/04/05 13:13:19;;;;;;;;;;;;;;;;;;5056540;28;43207;-80
2023/04/05 13:15:45;;;;;;;;;;;;;;;;;;5056451;28;42891;-80
2023/04/05 13:18:13;;;;;;;;;;;;;;;;;;5052461;28;42802;-77
2023/04/05 13:20:39;;;;;;;;;;;;;;;;;;5041448;28;43045;-79
2023/04/05 13:23:09;;;;;;;;;;;;;;;;;;5039394;28;43060;-79
2023/04/05 13:25:35;;;;;;;;;;;;;;;;;;5052537;28;43551;-80
2023/04/05 13:28:01;;;;;;;;;;;;;;;;;;5063213;28;42994;-78
2023/04/05 13:30:27;;;;;;;;;;;;;;;;;;5054970;28;43534;-77
2023/04/05 13:32:53;;;;;;;;;;;;;;;;;;5047617;28;43108;-81
2023/04/05 13:35:19;;;;;;;;;;;;;;;;;;5038382;28;44430;-78
2023/04/05 13:37:45;;;;;;;;;;;;;;;;;;5059054;28;43051;-79
2023/04/05 13:40:11;;;;;;;;;;;;;;;;;;5060273;28;42857;-78
2023/04/05 13:42:37;;;;;;;;;;;;;;;;;;5059774;28;42992;-77
2023/04/05 13:45:03;;;;;;;;;;;;;;;;;;5057281;28;43705;-79
2023/04/05 13:47:29;;;;;;;;;;;;;;;;;;5049755;28;42943;-78
2023/04/05 13:49:55;;;;;;;;;;;;;;;;;;5027850;28;44035;-78
2023/04/05 13:52:21;;;;;;;;;;;;;;;;;;5056318;28;43023;-77
2023/04/05 13:54:47;;;;;;;;;;;;;;;;;;5054402;28;43017;-79
2023/04/05 13:57:13;;;;;;;;;;;;;;;;;;5061661;28;44399;-77
2023/04/05 13:59:39;;;;;;;;;;;;;;;;;;5058356;28;43631;-78
2023/04/05 14:02:05;;;;;;;;;;;;;;;;;;5065344;28;42959;-76
2023/04/05 14:04:31;;;;;;;;;;;;;;;;;;5058149;28;42922;-77
2023/04/05 14:06:57;;;;;;;;;;;;;;;;;;5053365;28;43165;-77
2023/04/05 14:09:22;;;;;;;;;;;;;;;;;;5060710;28;42974;-77
2023/04/05 14:11:48;;;;;;;;;;;;;;;;;;5045470;28;42982;-81
2023/04/05 14:14:14;;;;;;;;;;;;;;;;;;5061804;28;43002;-82
2023/04/05 14:16:40;;;;;;;;;;;;;;;;;;5043345;28;43094;-87
2023/04/05 14:19:06;;;;;;;;;;;;;;;;;;5053661;28;43028;-85
2023/04/05 14:21:32;;;;;;;;;;;;;;;;;;5062625;28;42893;-82
2023/04/05 14:23:58;;;;;;;;;;;;;;;;;;5053698;28;43568;-80
2023/04/05 14:26:25;;;;;;;;;;;;;;;;;;5054310;28;43038;-78
2023/04/05 14:28:50;;;;;;;;;;;;;;;;;;5051777;28;42944;-81
2023/04/05 14:31:16;;;;;;;;;;;;;;;;;;5051377;28;43159;-89
2023/04/05 14:33:42;;;;;;;;;;;;;;;;;;5054139;28;43686;-88
2023/04/05 14:36:08;;;;;;;;;;;;;;;;;;5046171;28;42815;-83
2023/04/05 14:38:34;;;;;;;;;;;;;;;;;;5048205;28;42951;-84
2023/04/05 14:41:00;;;;;;;;;;;;;;;;;;5056122;28;43007;-87
2023/04/05 14:43:26;;;;;;;;;;;;;;;;;;5049159;28;43749;-81
2023/04/05 14:45:52;;;;;;;;;;;;;;;;;;5059662;28;43063;-80
2023/04/05 14:48:18;;;;;;;;;;;;;;;;;;5057742;28;42977;-81
2023/04/05 14:50:44;;;;;;;;;;;;;;;;;;5055605;28;42999;-82
2023/04/05 14:53:10;;;;;;;;;;;;;;;;;;5061705;28;42978;-81
2023/04/05 14:55:36;;;;;;;;;;;;;;;;;;5048463;28;43128;-83
2023/04/05 14:58:02;;;;;;;;;;;;;;;;;;5045301;28;44935;-80
2023/04/05 15:00:28;;;;;;;;;;;;;;;;;;5053790;28;43055;-81
2023/04/05 15:02:54;;;;;;;;;;;;;;;;;;5049576;28;43129;-78
2023/04/05 15:05:19;;;;;;;;;;;;;;;;;;5053175;28;42927;-78
2023/04/05 15:07:45;;;;;;;;;;;;;;;;;;5051994;28;43825;-77
2023/04/05 15:10:11;;;;;;;;;;;;;;;;;;5045575;28;42985;-78
2023/04/05 15:12:37;;;;;;;;;;;;;;;;;;5045759;28;42924;-78
2023/04/05 15:15:03;;;;;;;;;;;;;;;;;;5045841;28;42935;-78
2023/04/05 15:17:29;;;;;;;;;;;;;;;;;;5045621;28;42865;-78
2023/04/05 15:19:55;;;;;;;;;;;;;;;;;;5047547;28;42797;-77
2023/04/05 15:22:22;;;;;;;;;;;;;;;;;;5062313;28;43279;-77
2023/04/05 15:24:48;;;;;;;;;;;;;;;;;;5045783;28;43039;-76
2023/04/05 15:27:14;;;;;;;;;;;;;;;;;;5044900;28;43782;-77
2023/04/05 15:29:40;;;;;;;;;;;;;;;;;;5046164;28;43047;-79
2023/04/05 15:32:06;;;;;;;;;;;;;;;;;;5045462;28;43844;-79
2023/04/05 15:34:32;;;;;;;;;;;;;;;;;;5046474;28;42961;-77
2023/04/05 15:36:58;;;;;;;;;;;;;;;;;;5061643;28;43144;-77
2023/04/05 15:39:24;;;;;;;;;;;;;;;;;;5065726;28;43005;-79
2023/04/05 15:41:50;;;;;;;;;;;;;;;;;;5052441;28;43652;-79
2023/04/05 15:44:15;;;;;;;;;;;;;;;;;;5055627;28;42946;-77
2023/04/05 15:46:41;;;;;;;;;;;;;;;;;;5026786;28;44823;-80
2023/04/05 15:49:08;;;;;;;;;;;;;;;;;;5045788;28;43103;-77
2023/04/05 15:51:34;;;;;;;;;;;;;;;;;;5045186;28;42921;-78
2023/04/05 15:54:00;;;;;;;;;;;;;;;;;;5046299;28;42757;-78
2023/04/05 15:56:25;;;;;;;;;;;;;;;;;;5046087;28;42865;-79
2023/04/05 15:58:51;;;;;;;;;;;;;;;;;;5045013;28;42879;-79
2023/04/05 16:01:17;;;;;;;;;;;;;;;;;;5045387;28;43607;-81
2023/04/05 16:03:43;;;;;;;;;;;;;;;;;;5045788;28;42904;-76
2023/04/05 16:06:09;;;;;;;;;;;;;;;;;;5028210;28;43005;-78
2023/04/05 16:08:35;;;;;;;;;;;;;;;;;;5045983;28;42948;-80
2023/04/05 16:11:01;;;;;;;;;;;;;;;;;;5027268;28;45005;-76
2023/04/05 16:13:27;;;;;;;;;;;;;;;;;;5045410;28;42798;-76
2023/04/05 16:15:53;;;;;;;;;;;;;;;;;;5044790;28;43485;-78
2023/04/05 16:18:20;;;;;;;;;;;;;;;;;;5025992;28;42991;-80
2023/04/05 16:20:46;;;;;;;;;;;;;;;;;;5044564;28;42929;-79
2023/04/05 16:23:11;;;;;;;;;;;;;;;;;;5044918;28;42850;-79
2023/04/05 16:25:37;;;;;;;;;;;;;;;;;;5029406;28;44345;-77
2023/04/05 16:28:05;;;;;;;;;;;;;;;;;;5046752;28;43119;-78
2023/04/05 16:30:31;;;;;;;;;;;;;;;;;;5046947;28;43458;-80
2023/04/05 16:32:57;;;;;;;;;;;;;;;;;;5025616;28;42884;-78
2023/04/05 16:35:23;;;;;;;;;;;;;;;;;;5043774;28;44529;-77
2023/04/05 16:37:49;;;;;;;;;;;;;;;;;;5065197;28;42919;-79